sensor_id;sensor_type;location;lat;lon;timestamp;P1;durP1;ratioP1;P2;durP2;ratioP2
62654;SDS011;48717;55.556;37.816;2023-04-28T00:02:21;9.55;;;7.70;;
62654;SDS011;48717;55.556;37.816;2023-04-28T00:04:48;10.10;;;6.88;;
62654;SDS011;48717;55.556;37.816;2023-04-28T00:07:16;14.02;;;8.43;;
62654;SDS011;48717;55.556;37.816;2023-04-28T00:09:43;11.00;;;7.10;;
62654;SDS011;48717;55.556;37.816;2023-04-28T00:12:10;10.70;;;8.02;;
62654;SDS011;48717;55.556;37.816;2023-04-28T00:14:37;12.75;;;8.27;;
62654;SDS011;48717;55.556;37.816;2023-04-28T00:17:04;11.70;;;8.13;;
62654;SDS011;48717;55.556;37.816;2023-04-28T00:19:31;10.85;;;7.95;;
62654;SDS011;48717;55.556;37.816;2023-04-28T00:21:58;14.02;;;8.02;;
62654;SDS011;48717;55.556;37.816;2023-04-28T00:24:25;12.55;;;7.88;;
62654;SDS011;48717;55.556;37.816;2023-04-28T00:26:52;12.18;;;8.38;;
62654;SDS011;48717;55.556;37.816;2023-04-28T00:29:19;10.88;;;8.60;;
62654;SDS011;48717;55.556;37.816;2023-04-28T00:31:46;11.63;;;8.55;;
62654;SDS011;48717;55.556;37.816;2023-04-28T00:34:14;10.82;;;8.00;;
62654;SDS011;48717;55.556;37.816;2023-04-28T00:36:41;12.52;;;9.02;;
62654;SDS011;48717;55.556;37.816;2023-04-28T00:39:08;13.18;;;8.77;;
62654;SDS011;48717;55.556;37.816;2023-04-28T00:41:36;11.55;;;8.18;;
62654;SDS011;48717;55.556;37.816;2023-04-28T00:44:03;10.70;;;8.00;;
62654;SDS011;48717;55.556;37.816;2023-04-28T00:46:30;11.98;;;9.07;;
62654;SDS011;48717;55.556;37.816;2023-04-28T00:48:59;13.00;;;8.02;;
62654;SDS011;48717;55.556;37.816;2023-04-28T00:51:26;11.18;;;8.50;;
62654;SDS011;48717;55.556;37.816;2023-04-28T00:53:55;13.55;;;9.10;;
62654;SDS011;48717;55.556;37.816;2023-04-28T00:56:22;10.35;;;7.78;;
62654;SDS011;48717;55.556;37.816;2023-04-28T00:58:49;12.40;;;8.48;;
62654;SDS011;48717;55.556;37.816;2023-04-28T01:01:17;12.18;;;7.88;;
62654;SDS011;48717;55.556;37.816;2023-04-28T01:03:45;11.50;;;8.43;;
62654;SDS011;48717;55.556;37.816;2023-04-28T01:06:15;12.02;;;8.50;;
62654;SDS011;48717;55.556;37.816;2023-04-28T01:08:46;15.10;;;9.35;;
62654;SDS011;48717;55.556;37.816;2023-04-28T01:11:16;13.63;;;9.65;;
62654;SDS011;48717;55.556;37.816;2023-04-28T01:14:05;31.50;;;18.47;;
62654;SDS011;48717;55.556;37.816;2023-04-28T01:19:07;11.57;;;8.57;;
62654;SDS011;48717;55.556;37.816;2023-04-28T01:21:43;12.15;;;8.13;;
62654;SDS011;48717;55.556;37.816;2023-04-28T01:24:20;12.85;;;8.00;;
62654;SDS011;48717;55.556;37.816;2023-04-28T01:26:49;15.98;;;9.32;;
62654;SDS011;48717;55.556;37.816;2023-04-28T01:29:16;11.07;;;8.48;;
62654;SDS011;48717;55.556;37.816;2023-04-28T01:31:43;15.50;;;11.05;;
62654;SDS011;48717;55.556;37.816;2023-04-28T01:34:10;14.63;;;9.35;;
62654;SDS011;48717;55.556;37.816;2023-04-28T01:36:37;15.55;;;9.48;;
62654;SDS011;48717;55.556;37.816;2023-04-28T01:39:05;15.10;;;9.65;;
62654;SDS011;48717;55.556;37.816;2023-04-28T01:41:32;16.08;;;10.55;;
62654;SDS011;48717;55.556;37.816;2023-04-28T01:44:03;14.30;;;9.57;;
62654;SDS011;48717;55.556;37.816;2023-04-28T01:46:32;15.80;;;11.02;;
62654;SDS011;48717;55.556;37.816;2023-04-28T01:49:00;15.88;;;10.98;;
62654;SDS011;48717;55.556;37.816;2023-04-28T01:51:27;18.05;;;10.73;;
62654;SDS011;48717;55.556;37.816;2023-04-28T01:53:55;16.52;;;10.52;;
62654;SDS011;48717;55.556;37.816;2023-04-28T01:56:23;13.70;;;10.50;;
62654;SDS011;48717;55.556;37.816;2023-04-28T01:58:52;15.13;;;10.20;;
62654;SDS011;48717;55.556;37.816;2023-04-28T02:01:19;15.93;;;10.10;;
62654;SDS011;48717;55.556;37.816;2023-04-28T02:03:47;16.23;;;10.55;;
62654;SDS011;48717;55.556;37.816;2023-04-28T02:06:15;15.25;;;10.57;;
62654;SDS011;48717;55.556;37.816;2023-04-28T02:08:43;15.27;;;10.65;;
62654;SDS011;48717;55.556;37.816;2023-04-28T02:11:11;21.27;;;11.45;;
62654;SDS011;48717;55.556;37.816;2023-04-28T02:13:40;15.45;;;10.68;;
62654;SDS011;48717;55.556;37.816;2023-04-28T02:16:08;14.05;;;10.52;;
62654;SDS011;48717;55.556;37.816;2023-04-28T02:18:35;16.48;;;10.48;;
62654;SDS011;48717;55.556;37.816;2023-04-28T02:21:09;18.02;;;11.30;;
62654;SDS011;48717;55.556;37.816;2023-04-28T02:23:39;14.40;;;10.50;;
62654;SDS011;48717;55.556;37.816;2023-04-28T02:26:06;16.27;;;10.65;;
62654;SDS011;48717;55.556;37.816;2023-04-28T02:28:33;12.45;;;9.90;;
62654;SDS011;48717;55.556;37.816;2023-04-28T02:31:07;14.93;;;9.65;;
62654;SDS011;48717;55.556;37.816;2023-04-28T02:33:36;17.48;;;11.20;;
62654;SDS011;48717;55.556;37.816;2023-04-28T02:36:05;13.98;;;9.50;;
62654;SDS011;48717;55.556;37.816;2023-04-28T02:38:32;11.73;;;9.32;;
62654;SDS011;48717;55.556;37.816;2023-04-28T02:41:01;15.70;;;10.23;;
62654;SDS011;48717;55.556;37.816;2023-04-28T02:43:31;15.63;;;10.50;;
62654;SDS011;48717;55.556;37.816;2023-04-28T02:45:58;17.23;;;10.77;;
62654;SDS011;48717;55.556;37.816;2023-04-28T02:48:26;10.77;;;7.95;;
62654;SDS011;48717;55.556;37.816;2023-04-28T02:50:53;15.30;;;8.93;;
62654;SDS011;48717;55.556;37.816;2023-04-28T02:53:21;15.55;;;9.88;;
62654;SDS011;48717;55.556;37.816;2023-04-28T02:55:49;17.23;;;9.55;;
62654;SDS011;48717;55.556;37.816;2023-04-28T02:58:16;13.35;;;9.35;;
62654;SDS011;48717;55.556;37.816;2023-04-28T03:00:45;13.80;;;10.07;;
62654;SDS011;48717;55.556;37.816;2023-04-28T03:03:13;13.25;;;9.38;;
62654;SDS011;48717;55.556;37.816;2023-04-28T03:05:41;15.23;;;10.20;;
62654;SDS011;48717;55.556;37.816;2023-04-28T03:08:09;15.38;;;8.63;;
62654;SDS011;48717;55.556;37.816;2023-04-28T03:10:36;15.57;;;9.93;;
62654;SDS011;48717;55.556;37.816;2023-04-28T03:13:04;17.02;;;10.30;;
62654;SDS011;48717;55.556;37.816;2023-04-28T03:15:31;15.52;;;9.80;;
62654;SDS011;48717;55.556;37.816;2023-04-28T03:17:59;15.48;;;10.68;;
62654;SDS011;48717;55.556;37.816;2023-04-28T03:20:27;12.90;;;9.00;;
62654;SDS011;48717;55.556;37.816;2023-04-28T03:22:55;12.23;;;9.10;;
62654;SDS011;48717;55.556;37.816;2023-04-28T03:25:22;14.23;;;9.75;;
62654;SDS011;48717;55.556;37.816;2023-04-28T03:27:51;14.18;;;9.32;;
62654;SDS011;48717;55.556;37.816;2023-04-28T03:30:18;13.20;;;8.98;;
62654;SDS011;48717;55.556;37.816;2023-04-28T03:32:45;16.58;;;9.63;;
62654;SDS011;48717;55.556;37.816;2023-04-28T03:35:14;18.77;;;9.68;;
62654;SDS011;48717;55.556;37.816;2023-04-28T03:37:42;14.73;;;9.95;;
62654;SDS011;48717;55.556;37.816;2023-04-28T03:40:09;13.88;;;9.48;;
62654;SDS011;48717;55.556;37.816;2023-04-28T03:43:03;10.90;;;8.45;;
62654;SDS011;48717;55.556;37.816;2023-04-28T03:45:37;14.25;;;7.95;;
62654;SDS011;48717;55.556;37.816;2023-04-28T03:48:07;15.68;;;9.32;;
62654;SDS011;48717;55.556;37.816;2023-04-28T03:50:35;9.48;;;7.05;;
62654;SDS011;48717;55.556;37.816;2023-04-28T03:53:02;13.65;;;7.80;;
62654;SDS011;48717;55.556;37.816;2023-04-28T03:55:31;12.98;;;7.53;;
62654;SDS011;48717;55.556;37.816;2023-04-28T03:57:58;17.77;;;8.90;;
62654;SDS011;48717;55.556;37.816;2023-04-28T04:00:25;11.18;;;8.13;;
62654;SDS011;48717;55.556;37.816;2023-04-28T04:02:53;15.40;;;9.00;;
62654;SDS011;48717;55.556;37.816;2023-04-28T04:05:21;12.82;;;8.90;;
62654;SDS011;48717;55.556;37.816;2023-04-28T04:07:48;11.73;;;8.07;;
62654;SDS011;48717;55.556;37.816;2023-04-28T04:10:15;11.52;;;8.10;;
62654;SDS011;48717;55.556;37.816;2023-04-28T04:12:43;10.65;;;8.07;;
62654;SDS011;48717;55.556;37.816;2023-04-28T04:15:10;11.20;;;7.90;;
62654;SDS011;48717;55.556;37.816;2023-04-28T04:17:39;14.52;;;7.90;;
62654;SDS011;48717;55.556;37.816;2023-04-28T04:20:06;11.75;;;8.88;;
62654;SDS011;48717;55.556;37.816;2023-04-28T04:22:34;12.35;;;8.07;;
62654;SDS011;48717;55.556;37.816;2023-04-28T04:25:02;11.02;;;6.63;;
62654;SDS011;48717;55.556;37.816;2023-04-28T04:27:29;12.20;;;8.05;;
62654;SDS011;48717;55.556;37.816;2023-04-28T04:29:57;12.00;;;8.45;;
62654;SDS011;48717;55.556;37.816;2023-04-28T04:32:25;13.00;;;8.82;;
62654;SDS011;48717;55.556;37.816;2023-04-28T04:34:53;14.68;;;9.52;;
62654;SDS011;48717;55.556;37.816;2023-04-28T04:37:20;13.15;;;8.20;;
62654;SDS011;48717;55.556;37.816;2023-04-28T04:39:54;18.65;;;7.45;;
62654;SDS011;48717;55.556;37.816;2023-04-28T04:42:21;14.07;;;8.43;;
62654;SDS011;48717;55.556;37.816;2023-04-28T04:45:10;11.02;;;6.47;;
62654;SDS011;48717;55.556;37.816;2023-04-28T04:47:56;12.10;;;8.27;;
62654;SDS011;48717;55.556;37.816;2023-04-28T04:50:24;13.80;;;7.95;;
62654;SDS011;48717;55.556;37.816;2023-04-28T04:52:51;13.45;;;7.57;;
62654;SDS011;48717;55.556;37.816;2023-04-28T04:55:20;13.77;;;7.85;;
62654;SDS011;48717;55.556;37.816;2023-04-28T04:57:47;13.77;;;7.90;;
62654;SDS011;48717;55.556;37.816;2023-04-28T05:00:43;10.18;;;7.13;;
62654;SDS011;48717;55.556;37.816;2023-04-28T05:03:11;11.65;;;6.53;;
62654;SDS011;48717;55.556;37.816;2023-04-28T05:05:40;11.10;;;6.78;;
62654;SDS011;48717;55.556;37.816;2023-04-28T05:08:14;12.25;;;7.50;;
62654;SDS011;48717;55.556;37.816;2023-04-28T05:10:41;12.98;;;7.60;;
62654;SDS011;48717;55.556;37.816;2023-04-28T05:13:08;13.07;;;7.82;;
62654;SDS011;48717;55.556;37.816;2023-04-28T05:15:36;10.63;;;7.10;;
62654;SDS011;48717;55.556;37.816;2023-04-28T05:18:22;8.80;;;6.53;;
62654;SDS011;48717;55.556;37.816;2023-04-28T05:20:49;13.57;;;7.78;;
62654;SDS011;48717;55.556;37.816;2023-04-28T05:23:18;12.00;;;8.20;;
62654;SDS011;48717;55.556;37.816;2023-04-28T05:25:46;16.77;;;8.07;;
62654;SDS011;48717;55.556;37.816;2023-04-28T05:28:14;10.68;;;7.15;;
62654;SDS011;48717;55.556;37.816;2023-04-28T05:30:43;15.35;;;7.63;;
62654;SDS011;48717;55.556;37.816;2023-04-28T05:33:11;7.88;;;5.70;;
62654;SDS011;48717;55.556;37.816;2023-04-28T05:35:41;10.65;;;7.28;;
62654;SDS011;48717;55.556;37.816;2023-04-28T05:38:08;8.65;;;6.60;;
62654;SDS011;48717;55.556;37.816;2023-04-28T05:40:36;13.85;;;6.88;;
62654;SDS011;48717;55.556;37.816;2023-04-28T05:43:03;14.77;;;7.35;;
62654;SDS011;48717;55.556;37.816;2023-04-28T05:45:30;11.48;;;7.40;;
62654;SDS011;48717;55.556;37.816;2023-04-28T05:47:57;13.50;;;7.53;;
62654;SDS011;48717;55.556;37.816;2023-04-28T05:50:26;8.50;;;6.50;;
62654;SDS011;48717;55.556;37.816;2023-04-28T05:52:53;10.40;;;6.28;;
62654;SDS011;48717;55.556;37.816;2023-04-28T05:55:20;8.55;;;6.00;;
62654;SDS011;48717;55.556;37.816;2023-04-28T05:57:48;11.32;;;6.80;;
62654;SDS011;48717;55.556;37.816;2023-04-28T06:00:20;13.02;;;6.68;;
62654;SDS011;48717;55.556;37.816;2023-04-28T06:02:50;11.80;;;6.75;;
62654;SDS011;48717;55.556;37.816;2023-04-28T06:05:19;9.27;;;6.13;;
62654;SDS011;48717;55.556;37.816;2023-04-28T06:07:50;8.80;;;6.40;;
62654;SDS011;48717;55.556;37.816;2023-04-28T06:10:21;8.32;;;5.95;;
62654;SDS011;48717;55.556;37.816;2023-04-28T06:12:49;8.30;;;7.25;;
62654;SDS011;48717;55.556;37.816;2023-04-28T06:15:16;8.02;;;6.35;;
62654;SDS011;48717;55.556;37.816;2023-04-28T06:17:43;13.20;;;6.80;;
62654;SDS011;48717;55.556;37.816;2023-04-28T06:20:11;13.43;;;6.30;;
62654;SDS011;48717;55.556;37.816;2023-04-28T06:22:39;8.60;;;6.30;;
62654;SDS011;48717;55.556;37.816;2023-04-28T06:25:07;9.85;;;6.22;;
62654;SDS011;48717;55.556;37.816;2023-04-28T06:27:42;11.68;;;6.80;;
62654;SDS011;48717;55.556;37.816;2023-04-28T06:30:09;9.70;;;5.93;;
62654;SDS011;48717;55.556;37.816;2023-04-28T06:32:42;10.27;;;6.85;;
62654;SDS011;48717;55.556;37.816;2023-04-28T06:35:10;9.43;;;6.80;;
62654;SDS011;48717;55.556;37.816;2023-04-28T06:37:37;8.52;;;6.38;;
62654;SDS011;48717;55.556;37.816;2023-04-28T06:40:04;16.38;;;8.05;;
62654;SDS011;48717;55.556;37.816;2023-04-28T06:42:34;10.15;;;6.57;;
62654;SDS011;48717;55.556;37.816;2023-04-28T06:45:09;13.25;;;7.30;;
62654;SDS011;48717;55.556;37.816;2023-04-28T06:47:37;11.07;;;7.18;;
62654;SDS011;48717;55.556;37.816;2023-04-28T06:50:08;9.60;;;5.75;;
62654;SDS011;48717;55.556;37.816;2023-04-28T06:52:36;9.75;;;7.18;;
62654;SDS011;48717;55.556;37.816;2023-04-28T06:55:06;9.20;;;4.80;;
62654;SDS011;48717;55.556;37.816;2023-04-28T06:57:35;7.70;;;5.93;;
62654;SDS011;48717;55.556;37.816;2023-04-28T07:00:04;6.93;;;5.25;;
62654;SDS011;48717;55.556;37.816;2023-04-28T07:02:32;12.93;;;7.65;;
62654;SDS011;48717;55.556;37.816;2023-04-28T07:05:01;8.30;;;7.38;;
62654;SDS011;48717;55.556;37.816;2023-04-28T07:07:31;12.60;;;6.80;;
62654;SDS011;48717;55.556;37.816;2023-04-28T07:09:58;10.23;;;6.80;;
62654;SDS011;48717;55.556;37.816;2023-04-28T07:12:27;11.18;;;8.05;;
62654;SDS011;48717;55.556;37.816;2023-04-28T07:14:54;11.85;;;7.70;;
62654;SDS011;48717;55.556;37.816;2023-04-28T07:17:22;9.32;;;7.93;;
62654;SDS011;48717;55.556;37.816;2023-04-28T07:19:49;10.13;;;7.57;;
62654;SDS011;48717;55.556;37.816;2023-04-28T07:22:16;9.60;;;6.95;;
62654;SDS011;48717;55.556;37.816;2023-04-28T07:24:43;11.75;;;7.57;;
62654;SDS011;48717;55.556;37.816;2023-04-28T07:27:11;9.90;;;6.53;;
62654;SDS011;48717;55.556;37.816;2023-04-28T07:29:38;9.70;;;7.72;;
62654;SDS011;48717;55.556;37.816;2023-04-28T07:32:06;8.73;;;7.63;;
62654;SDS011;48717;55.556;37.816;2023-04-28T07:34:36;9.52;;;7.50;;
62654;SDS011;48717;55.556;37.816;2023-04-28T07:37:04;9.23;;;7.10;;
62654;SDS011;48717;55.556;37.816;2023-04-28T07:39:32;10.90;;;7.40;;
62654;SDS011;48717;55.556;37.816;2023-04-28T07:42:00;10.85;;;8.88;;
62654;SDS011;48717;55.556;37.816;2023-04-28T07:44:30;12.02;;;7.78;;
62654;SDS011;48717;55.556;37.816;2023-04-28T07:47:00;11.73;;;6.47;;
62654;SDS011;48717;55.556;37.816;2023-04-28T07:49:28;7.53;;;5.95;;
62654;SDS011;48717;55.556;37.816;2023-04-28T07:51:56;8.90;;;5.80;;
62654;SDS011;48717;55.556;37.816;2023-04-28T07:54:23;13.82;;;8.20;;
62654;SDS011;48717;55.556;37.816;2023-04-28T07:56:50;7.63;;;5.97;;
62654;SDS011;48717;55.556;37.816;2023-04-28T07:59:18;9.57;;;6.53;;
62654;SDS011;48717;55.556;37.816;2023-04-28T08:01:45;8.07;;;5.25;;
62654;SDS011;48717;55.556;37.816;2023-04-28T08:04:12;9.30;;;5.80;;
62654;SDS011;48717;55.556;37.816;2023-04-28T08:06:40;7.60;;;5.25;;
62654;SDS011;48717;55.556;37.816;2023-04-28T08:09:07;9.73;;;5.32;;
62654;SDS011;48717;55.556;37.816;2023-04-28T08:11:34;7.25;;;5.38;;
62654;SDS011;48717;55.556;37.816;2023-04-28T08:14:01;8.02;;;5.43;;
62654;SDS011;48717;55.556;37.816;2023-04-28T08:16:29;6.28;;;5.63;;
62654;SDS011;48717;55.556;37.816;2023-04-28T08:18:57;9.25;;;6.90;;
62654;SDS011;48717;55.556;37.816;2023-04-28T08:21:26;8.82;;;5.35;;
62654;SDS011;48717;55.556;37.816;2023-04-28T08:23:53;5.43;;;4.28;;
62654;SDS011;48717;55.556;37.816;2023-04-28T08:26:21;8.43;;;4.93;;
62654;SDS011;48717;55.556;37.816;2023-04-28T08:28:51;10.25;;;5.10;;
62654;SDS011;48717;55.556;37.816;2023-04-28T08:31:18;7.68;;;4.68;;
62654;SDS011;48717;55.556;37.816;2023-04-28T08:33:46;12.27;;;5.72;;
62654;SDS011;48717;55.556;37.816;2023-04-28T08:36:16;8.25;;;5.47;;
62654;SDS011;48717;55.556;37.816;2023-04-28T08:38:44;10.20;;;5.55;;
62654;SDS011;48717;55.556;37.816;2023-04-28T08:41:12;8.07;;;4.30;;
62654;SDS011;48717;55.556;37.816;2023-04-28T08:43:42;9.45;;;6.15;;
62654;SDS011;48717;55.556;37.816;2023-04-28T08:46:10;9.35;;;5.68;;
62654;SDS011;48717;55.556;37.816;2023-04-28T08:51:14;9.48;;;6.05;;
62654;SDS011;48717;55.556;37.816;2023-04-28T08:53:43;14.95;;;7.55;;
62654;SDS011;48717;55.556;37.816;2023-04-28T08:56:35;8.50;;;6.80;;
62654;SDS011;48717;55.556;37.816;2023-04-28T08:59:02;11.15;;;6.75;;
62654;SDS011;48717;55.556;37.816;2023-04-28T09:01:31;9.88;;;6.50;;
62654;SDS011;48717;55.556;37.816;2023-04-28T09:04:01;9.35;;;6.93;;
62654;SDS011;48717;55.556;37.816;2023-04-28T09:06:36;8.63;;;7.60;;
62654;SDS011;48717;55.556;37.816;2023-04-28T09:12:05;10.13;;;7.45;;
62654;SDS011;48717;55.556;37.816;2023-04-28T09:14:33;10.35;;;8.32;;
62654;SDS011;48717;55.556;37.816;2023-04-28T09:17:08;9.63;;;8.20;;
62654;SDS011;48717;55.556;37.816;2023-04-28T09:19:38;10.48;;;8.77;;
62654;SDS011;48717;55.556;37.816;2023-04-28T09:22:08;12.13;;;9.35;;
62654;SDS011;48717;55.556;37.816;2023-04-28T09:24:50;13.02;;;9.77;;
62654;SDS011;48717;55.556;37.816;2023-04-28T09:27:27;11.80;;;8.88;;
62654;SDS011;48717;55.556;37.816;2023-04-28T09:29:55;11.77;;;9.45;;
62654;SDS011;48717;55.556;37.816;2023-04-28T09:32:22;15.65;;;10.73;;
62654;SDS011;48717;55.556;37.816;2023-04-28T09:34:51;15.70;;;10.25;;
62654;SDS011;48717;55.556;37.816;2023-04-28T09:37:23;13.77;;;8.13;;
62654;SDS011;48717;55.556;37.816;2023-04-28T09:39:53;12.38;;;8.95;;
62654;SDS011;48717;55.556;37.816;2023-04-28T09:42:40;11.05;;;9.52;;
62654;SDS011;48717;55.556;37.816;2023-04-28T09:45:09;11.73;;;9.10;;
62654;SDS011;48717;55.556;37.816;2023-04-28T09:47:47;12.90;;;9.52;;
62654;SDS011;48717;55.556;37.816;2023-04-28T09:50:15;44.65;;;28.92;;
62654;SDS011;48717;55.556;37.816;2023-04-28T09:52:45;16.52;;;9.18;;
62654;SDS011;48717;55.556;37.816;2023-04-28T09:55:23;11.20;;;8.82;;
62654;SDS011;48717;55.556;37.816;2023-04-28T09:57:52;11.25;;;9.30;;
62654;SDS011;48717;55.556;37.816;2023-04-28T10:00:21;12.82;;;9.95;;
62654;SDS011;48717;55.556;37.816;2023-04-28T10:02:50;10.35;;;8.00;;
62654;SDS011;48717;55.556;37.816;2023-04-28T10:05:18;12.93;;;9.60;;
62654;SDS011;48717;55.556;37.816;2023-04-28T10:07:49;11.35;;;10.20;;
62654;SDS011;48717;55.556;37.816;2023-04-28T10:10:17;12.07;;;9.70;;
62654;SDS011;48717;55.556;37.816;2023-04-28T10:12:45;10.88;;;9.77;;
62654;SDS011;48717;55.556;37.816;2023-04-28T10:15:13;10.77;;;9.55;;
62654;SDS011;48717;55.556;37.816;2023-04-28T10:17:40;12.60;;;9.93;;
62654;SDS011;48717;55.556;37.816;2023-04-28T10:20:07;10.20;;;9.05;;
62654;SDS011;48717;55.556;37.816;2023-04-28T10:25:34;12.88;;;9.13;;
62654;SDS011;48717;55.556;37.816;2023-04-28T10:28:06;10.95;;;9.05;;
62654;SDS011;48717;55.556;37.816;2023-04-28T10:30:34;9.88;;;8.88;;
62654;SDS011;48717;55.556;37.816;2023-04-28T10:40:41;9.45;;;8.30;;
62654;SDS011;48717;55.556;37.816;2023-04-28T10:43:11;13.27;;;9.35;;
62654;SDS011;48717;55.556;37.816;2023-04-28T10:58:49;12.13;;;9.25;;
62654;SDS011;48717;55.556;37.816;2023-04-28T11:06:21;15.68;;;11.27;;
62654;SDS011;48717;55.556;37.816;2023-04-28T11:08:55;13.73;;;9.38;;
62654;SDS011;48717;55.556;37.816;2023-04-28T11:11:26;21.30;;;16.08;;
62654;SDS011;48717;55.556;37.816;2023-04-28T11:14:55;17.65;;;12.15;;
62654;SDS011;48717;55.556;37.816;2023-04-28T11:17:04;16.92;;;12.00;;
62654;SDS011;48717;55.556;37.816;2023-04-28T11:19:36;20.88;;;13.88;;
62654;SDS011;48717;55.556;37.816;2023-04-28T11:22:26;17.02;;;13.25;;
62654;SDS011;48717;55.556;37.816;2023-04-28T11:24:56;13.48;;;9.35;;
62654;SDS011;48717;55.556;37.816;2023-04-28T11:27:25;15.32;;;11.50;;
62654;SDS011;48717;55.556;37.816;2023-04-28T11:29:59;13.00;;;7.07;;
62654;SDS011;48717;55.556;37.816;2023-04-28T11:32:33;12.73;;;10.38;;
62654;SDS011;48717;55.556;37.816;2023-04-28T11:35:02;13.77;;;11.20;;
62654;SDS011;48717;55.556;37.816;2023-04-28T11:37:35;14.35;;;10.50;;
62654;SDS011;48717;55.556;37.816;2023-04-28T11:40:11;18.50;;;11.80;;
62654;SDS011;48717;55.556;37.816;2023-04-28T11:42:46;15.90;;;12.50;;
62654;SDS011;48717;55.556;37.816;2023-04-28T11:45:14;20.17;;;14.15;;
62654;SDS011;48717;55.556;37.816;2023-04-28T11:47:41;15.65;;;11.52;;
62654;SDS011;48717;55.556;37.816;2023-04-28T11:50:08;18.73;;;13.02;;
62654;SDS011;48717;55.556;37.816;2023-04-28T11:52:46;16.15;;;10.95;;
62654;SDS011;48717;55.556;37.816;2023-04-28T11:55:16;13.80;;;11.43;;
62654;SDS011;48717;55.556;37.816;2023-04-28T11:57:43;13.13;;;10.80;;
62654;SDS011;48717;55.556;37.816;2023-04-28T12:00:11;14.40;;;9.50;;
62654;SDS011;48717;55.556;37.816;2023-04-28T12:02:40;12.73;;;9.80;;
62654;SDS011;48717;55.556;37.816;2023-04-28T12:05:08;12.85;;;9.90;;
62654;SDS011;48717;55.556;37.816;2023-04-28T12:07:39;12.68;;;10.15;;
62654;SDS011;48717;55.556;37.816;2023-04-28T12:10:13;12.38;;;10.35;;
62654;SDS011;48717;55.556;37.816;2023-04-28T12:12:46;11.50;;;9.65;;
62654;SDS011;48717;55.556;37.816;2023-04-28T12:15:20;17.17;;;10.85;;
62654;SDS011;48717;55.556;37.816;2023-04-28T12:17:49;17.27;;;12.48;;
62654;SDS011;48717;55.556;37.816;2023-04-28T12:20:36;17.35;;;12.23;;
62654;SDS011;48717;55.556;37.816;2023-04-28T12:23:05;14.57;;;11.48;;
62654;SDS011;48717;55.556;37.816;2023-04-28T12:25:41;20.85;;;12.60;;
62654;SDS011;48717;55.556;37.816;2023-04-28T12:28:10;16.48;;;12.27;;
62654;SDS011;48717;55.556;37.816;2023-04-28T12:30:37;24.70;;;13.23;;
62654;SDS011;48717;55.556;37.816;2023-04-28T12:33:05;24.33;;;13.07;;
62654;SDS011;48717;55.556;37.816;2023-04-28T12:35:47;24.60;;;12.55;;
62654;SDS011;48717;55.556;37.816;2023-04-28T12:38:15;15.27;;;11.00;;
62654;SDS011;48717;55.556;37.816;2023-04-28T12:40:42;17.95;;;13.13;;
62654;SDS011;48717;55.556;37.816;2023-04-28T12:43:09;22.98;;;11.93;;
62654;SDS011;48717;55.556;37.816;2023-04-28T12:45:36;19.13;;;11.20;;
62654;SDS011;48717;55.556;37.816;2023-04-28T12:48:04;16.90;;;11.52;;
62654;SDS011;48717;55.556;37.816;2023-04-28T12:50:32;17.65;;;12.60;;
62654;SDS011;48717;55.556;37.816;2023-04-28T12:52:59;19.02;;;12.00;;
62654;SDS011;48717;55.556;37.816;2023-04-28T12:55:27;14.00;;;9.25;;
62654;SDS011;48717;55.556;37.816;2023-04-28T12:57:55;22.63;;;12.02;;
62654;SDS011;48717;55.556;37.816;2023-04-28T13:00:22;18.02;;;12.38;;
62654;SDS011;48717;55.556;37.816;2023-04-28T13:02:50;15.85;;;11.40;;
62654;SDS011;48717;55.556;37.816;2023-04-28T13:05:19;19.35;;;12.45;;
62654;SDS011;48717;55.556;37.816;2023-04-28T13:07:46;20.52;;;13.88;;
62654;SDS011;48717;55.556;37.816;2023-04-28T13:10:15;20.05;;;13.55;;
62654;SDS011;48717;55.556;37.816;2023-04-28T13:12:44;17.73;;;13.02;;
62654;SDS011;48717;55.556;37.816;2023-04-28T13:15:11;22.75;;;12.95;;
62654;SDS011;48717;55.556;37.816;2023-04-28T13:17:39;20.15;;;13.48;;
62654;SDS011;48717;55.556;37.816;2023-04-28T13:20:06;26.25;;;14.13;;
62654;SDS011;48717;55.556;37.816;2023-04-28T13:22:34;19.67;;;13.80;;
62654;SDS011;48717;55.556;37.816;2023-04-28T13:25:01;25.10;;;14.82;;
62654;SDS011;48717;55.556;37.816;2023-04-28T13:27:30;21.42;;;12.95;;
62654;SDS011;48717;55.556;37.816;2023-04-28T13:29:59;14.70;;;11.75;;
62654;SDS011;48717;55.556;37.816;2023-04-28T13:32:26;18.85;;;12.80;;
62654;SDS011;48717;55.556;37.816;2023-04-28T13:34:53;20.95;;;13.50;;
62654;SDS011;48717;55.556;37.816;2023-04-28T13:37:21;17.02;;;12.70;;
62654;SDS011;48717;55.556;37.816;2023-04-28T13:39:48;15.95;;;12.25;;
62654;SDS011;48717;55.556;37.816;2023-04-28T13:42:15;17.45;;;12.35;;
62654;SDS011;48717;55.556;37.816;2023-04-28T13:44:43;15.77;;;11.93;;
62654;SDS011;48717;55.556;37.816;2023-04-28T13:47:10;15.93;;;11.30;;
62654;SDS011;48717;55.556;37.816;2023-04-28T13:49:38;20.13;;;11.30;;
62654;SDS011;48717;55.556;37.816;2023-04-28T13:52:05;14.70;;;10.57;;
62654;SDS011;48717;55.556;37.816;2023-04-28T13:54:32;14.20;;;10.63;;
62654;SDS011;48717;55.556;37.816;2023-04-28T13:56:59;14.25;;;10.75;;
62654;SDS011;48717;55.556;37.816;2023-04-28T13:59:27;14.95;;;10.75;;
62654;SDS011;48717;55.556;37.816;2023-04-28T14:01:54;16.15;;;11.30;;
62654;SDS011;48717;55.556;37.816;2023-04-28T14:04:21;14.77;;;11.25;;
62654;SDS011;48717;55.556;37.816;2023-04-28T14:06:49;14.90;;;10.63;;
62654;SDS011;48717;55.556;37.816;2023-04-28T14:09:16;12.20;;;8.98;;
62654;SDS011;48717;55.556;37.816;2023-04-28T14:11:43;12.15;;;8.50;;
62654;SDS011;48717;55.556;37.816;2023-04-28T14:14:10;10.02;;;7.97;;
62654;SDS011;48717;55.556;37.816;2023-04-28T14:16:37;12.45;;;8.57;;
62654;SDS011;48717;55.556;37.816;2023-04-28T14:19:05;13.73;;;8.77;;
62654;SDS011;48717;55.556;37.816;2023-04-28T14:21:32;10.75;;;8.80;;
62654;SDS011;48717;55.556;37.816;2023-04-28T14:24:00;9.43;;;7.53;;
62654;SDS011;48717;55.556;37.816;2023-04-28T14:26:27;9.45;;;7.70;;
62654;SDS011;48717;55.556;37.816;2023-04-28T14:28:55;8.63;;;7.07;;
62654;SDS011;48717;55.556;37.816;2023-04-28T14:31:22;10.82;;;7.25;;
62654;SDS011;48717;55.556;37.816;2023-04-28T14:33:49;9.52;;;7.20;;
62654;SDS011;48717;55.556;37.816;2023-04-28T14:36:16;10.20;;;7.18;;
62654;SDS011;48717;55.556;37.816;2023-04-28T14:38:43;8.27;;;6.35;;
62654;SDS011;48717;55.556;37.816;2023-04-28T14:41:10;10.70;;;6.60;;
62654;SDS011;48717;55.556;37.816;2023-04-28T14:43:37;8.38;;;6.78;;
62654;SDS011;48717;55.556;37.816;2023-04-28T14:46:04;8.48;;;6.43;;
62654;SDS011;48717;55.556;37.816;2023-04-28T14:48:31;11.65;;;6.30;;
62654;SDS011;48717;55.556;37.816;2023-04-28T14:50:59;11.35;;;7.00;;
62654;SDS011;48717;55.556;37.816;2023-04-28T14:53:27;9.77;;;6.20;;
62654;SDS011;48717;55.556;37.816;2023-04-28T14:55:55;8.23;;;5.07;;
62654;SDS011;48717;55.556;37.816;2023-04-28T14:58:43;12.07;;;6.50;;
62654;SDS011;48717;55.556;37.816;2023-04-28T15:01:10;8.90;;;6.90;;
62654;SDS011;48717;55.556;37.816;2023-04-28T15:03:37;9.65;;;6.75;;
62654;SDS011;48717;55.556;37.816;2023-04-28T15:06:05;8.27;;;6.45;;
62654;SDS011;48717;55.556;37.816;2023-04-28T15:08:32;11.43;;;7.35;;
62654;SDS011;48717;55.556;37.816;2023-04-28T15:10:59;8.65;;;6.70;;